< < Back
Terminal Aerodrome Forecast


Current Version              Previous Versions:   1  2  3  4  5  6  7  8  9  

Terminal Aerodrome Forecast

014
FTUS44 KOHX 260500
TAFBNA
TAF
KBNA 260537Z 2606/2706 00000KT P6SM SCT250
     FM261200 22006KT P6SM SCT250=

Latest METAR

965
SAUS70 KWBC 260900 RRB
MTRBNA
METAR KBNA 260853Z 00000KT 10SM CLR 20/18 A3002 RMK AO2 SLP159 T02000178
56003


USA.gov is the U.S. government's official web portal to all federal, state and local government web resources and services.